Time;durP1;ratioP1;P1;durP2;ratioP2;P2;SDS_P1;SDS_P2;PMS_P1;PMS_P2;Temp;Humidity;BMP_temperature;BMP_pressure;BME280_temperature;BME280_humidity;BME280_pressure;Samples;Min_cycle;Max_cycle;Signal;HPM_P1;HPM_P2
2022/11/17 00:01:08;;;;;;;;;1.67;1.00;;;;;21.39;50.30;98067.00;5017904;28;45652;-70
2022/11/17 00:03:33;;;;;;;;;1.00;1.00;;;;;21.42;49.90;98073.63;5036034;28;45359;-69
2022/11/17 00:06:05;;;;;;;;;2.00;0.00;;;;;21.31;50.03;98067.44;5015981;28;45411;-68
2022/11/17 00:08:30;;;;;;;;;2.00;1.00;;;;;;;;5028313;28;45385;-69
2022/11/17 00:11:02;;;;;;;;;1.33;1.00;;;;;21.34;49.62;98080.16;5035664;28;45343;-71
2022/11/17 00:16:17;;;;;;;;;1.00;1.00;;;;;21.46;49.98;98106.50;5035468;28;45536;-71
2022/11/17 00:21:27;;;;;;;;;2.00;0.00;;;;;21.42;50.06;98128.41;5022931;28;45410;-70
2022/11/17 00:23:54;;;;;;;;;0.00;0.00;;;;;21.47;50.02;98131.09;5035964;28;45396;-71
2022/11/17 00:26:25;;;;;;;;;0.00;0.00;;;;;21.42;49.74;98150.34;5035127;28;47394;-71
2022/11/17 00:28:56;;;;;;;;;2.33;0.67;;;;;21.44;50.07;98140.34;5035903;28;45425;-71
2022/11/17 00:34:15;;;;;;;;;2.00;0.00;;;;;21.39;49.63;98159.56;5035447;28;45446;-71
2022/11/17 00:36:47;;;;;;;;;1.00;1.00;;;;;21.44;49.88;98171.28;5025484;28;46230;-71
2022/11/17 00:39:14;;;;;;;;;0.67;0.67;;;;;21.44;49.97;98181.84;5035528;28;45315;-71
2022/11/17 00:41:39;;;;;;;;;0.33;0.00;;;;;21.42;49.79;98173.38;5035320;28;45850;-71
2022/11/17 00:44:06;;;;;;;;;0.67;0.00;;;;;21.34;49.84;98159.47;5035728;28;45284;-71
2022/11/17 00:46:32;;;;;;;;;0.00;0.00;;;;;21.42;49.67;98189.25;5035201;28;45333;-71
2022/11/17 00:48:58;;;;;;;;;1.00;1.00;;;;;21.42;49.80;98191.88;5035249;28;45390;-71
2022/11/17 00:51:24;;;;;;;;;0.00;0.00;;;;;21.40;50.02;98192.91;5035419;28;45350;-71
2022/11/17 00:53:50;;;;;;;;;1.00;1.00;;;;;21.40;49.62;98202.69;5035195;28;45362;-71
2022/11/17 00:56:15;;;;;;;;;0.00;0.00;;;;;21.39;49.88;98199.25;5035150;28;45362;-71
2022/11/17 00:58:40;;;;;;;;;0.00;0.00;;;;;21.38;49.47;98210.88;5034940;28;45370;-71
2022/11/17 01:01:06;;;;;;;;;1.00;0.00;;;;;21.34;49.72;98217.66;5035059;28;45352;-71
2022/11/17 01:03:33;;;;;;;;;0.67;0.67;;;;;21.37;49.43;98226.97;5035240;28;45413;-71
2022/11/17 01:06:07;;;;;;;;;0.00;0.00;;;;;21.33;49.71;98226.66;5028252;28;46388;-71
2022/11/17 01:08:33;;;;;;;;;0.00;0.00;;;;;21.36;49.81;98220.09;5035433;28;45421;-71
2022/11/17 01:11:11;;;;;;;;;1.00;1.00;;;;;21.36;49.34;98223.53;5034775;28;45464;-71
2022/11/17 01:13:38;;;;;;;;;2.67;0.00;;;;;21.35;49.88;98232.50;5035322;28;45353;-71
2022/11/17 01:16:07;;;;;;;;;2.00;0.00;;;;;21.33;49.52;98244.38;5034448;28;47536;-71
2022/11/17 01:18:33;;;;;;;;;1.00;0.00;;;;;21.33;49.29;98231.94;5034689;28;45316;-71
2022/11/17 01:21:10;;;;;;;;;1.33;0.00;;;;;21.29;49.54;98233.44;5034737;28;45401;-71
2022/11/17 01:23:37;;;;;;;;;0.00;0.00;;;;;21.31;49.24;98241.97;5034857;28;45440;-71
2022/11/17 01:26:13;;;;;;;;;0.00;0.00;;;;;21.30;49.60;98250.94;5034656;28;45409;-71
2022/11/17 01:28:39;;;;;;;;;1.33;0.67;;;;;21.30;49.26;98258.88;5034619;28;45387;-71
2022/11/17 01:31:27;;;;;;;;;0.00;0.00;;;;;21.30;49.62;98250.94;5034883;28;45490;-71
2022/11/17 01:33:52;;;;;;;;;0.00;0.00;;;;;21.31;49.72;98263.13;5034865;28;45425;-71
2022/11/17 01:36:24;;;;;;;;;0.00;0.00;;;;;21.32;49.35;98266.56;5034233;28;46545;-71
2022/11/17 01:38:49;;;;;;;;;0.00;0.00;;;;;21.33;49.68;98262.88;5034369;28;45258;-71
2022/11/17 01:41:23;;;;;;;;;3.33;0.00;;;;;21.32;49.64;98275.28;5034818;28;45490;-71
2022/11/17 01:43:53;;;;;;;;;0.00;0.00;;;;;21.32;49.35;98259.44;5034699;28;45434;-71
2022/11/17 01:46:33;;;;;;;;;0.00;0.00;;;;;21.33;49.32;98265.53;5034493;28;45700;-71
2022/11/17 01:49:11;;;;;;;;;0.00;0.00;;;;;21.32;49.80;98288.53;5034753;28;45433;-71
2022/11/17 01:51:42;;;;;;;;;1.00;0.00;;;;;21.32;49.31;98296.47;5037810;28;45333;-71
2022/11/17 01:54:11;;;;;;;;;1.00;1.00;;;;;21.32;49.75;98300.94;5038265;28;45331;-71
2022/11/17 01:56:40;;;;;;;;;0.00;0.00;;;;;21.33;49.69;98308.66;5037807;28;46260;-71
2022/11/17 01:59:17;;;;;;;;;0.00;0.00;;;;;21.30;49.72;98298.53;5038023;28;45409;-71
2022/11/17 02:01:54;;;;;;;;;0.33;0.33;;;;;21.32;49.19;98322.91;5037789;28;45414;-71
2022/11/17 02:04:22;;;;;;;;;0.00;0.00;;;;;21.31;49.39;98329.25;5032154;28;45249;-71
2022/11/17 02:06:51;;;;;;;;;0.00;0.00;;;;;21.21;49.22;98295.47;5021327;28;47311;-71
2022/11/17 02:09:16;;;;;;;;;1.00;0.00;;;;;21.29;49.55;98334.75;5039172;28;45278;-71
2022/11/17 02:11:42;;;;;;;;;0.00;0.00;;;;;21.26;49.51;98331.81;5038016;28;45521;-71
2022/11/17 02:14:07;;;;;;;;;0.00;0.00;;;;;21.29;49.53;98345.34;5037908;28;45438;-71
2022/11/17 02:16:32;;;;;;;;;0.00;0.00;;;;;21.30;49.47;98343.50;5037274;28;46330;-71
2022/11/17 02:18:58;;;;;;;;;0.00;0.00;;;;;21.28;49.30;98349.03;5037830;28;45459;-71
2022/11/17 02:21:35;;;;;;;;;1.00;1.00;;;;;21.31;49.62;98360.19;5037390;28;45369;-71
2022/11/17 02:24:19;;;;;;;;;0.00;0.00;;;;;21.30;49.14;98364.66;5037842;28;45457;-71
2022/11/17 02:27:26;;;;;;;;;1.00;1.00;;;;;21.30;49.54;98372.59;5037534;28;46347;-71
2022/11/17 02:30:04;;;;;;;;;1.00;0.00;;;;;21.28;49.15;98364.09;4949106;28;45490;-71
2022/11/17 02:32:32;;;;;;;;;2.00;0.00;;;;;21.28;49.04;98391.34;4938536;28;45420;-71
2022/11/17 02:35:24;;;;;;;;;0.00;0.00;;;;;21.28;49.15;98393.19;4937128;28;45465;-71
2022/11/17 02:38:15;;;;;;;;;0.67;0.67;;;;;21.27;49.28;98395.03;4937115;28;47095;-72
2022/11/17 02:40:48;;;;;;;;;2.00;0.00;;;;;21.22;49.56;98388.81;4922924;28;45394;-71
2022/11/17 02:46:16;;;;;;;;;1.00;0.00;;;;;21.24;49.29;98399.97;4936750;28;45370;-71
2022/11/17 02:48:50;;;;;;;;;0.00;0.00;;;;;21.23;49.07;98412.41;4942818;28;46458;-71
2022/11/17 02:51:20;;;;;;;;;1.00;0.00;;;;;21.23;49.37;98401.84;4936758;28;45502;-71
2022/11/17 02:53:48;;;;;;;;;0.00;0.00;;;;;21.23;49.28;98407.13;4936980;28;45373;-71
2022/11/17 02:56:13;;;;;;;;;2.33;0.00;;;;;21.22;49.11;98402.84;4944735;28;45481;-71
2022/11/17 02:58:38;;;;;;;;;0.33;0.00;;;;;21.11;49.12;98390.47;4936275;28;46088;-71
2022/11/17 03:01:48;;;;;;;;;0.00;0.00;;;;;21.21;49.47;98416.31;4936000;28;45722;-71
2022/11/17 03:04:17;;;;;;;;;2.00;0.00;;;;;21.20;49.04;98420.81;4944926;28;45496;-71
2022/11/17 03:07:04;;;;;;;;;1.67;0.00;;;;;21.21;49.08;98434.84;4991518;28;45604;-71
2022/11/17 03:09:53;;;;;;;;;0.67;0.00;;;;;21.21;49.25;98435.63;5036679;28;46234;-71
2022/11/17 03:12:56;;;;;;;;;0.00;0.00;;;;;21.22;49.11;98431.94;5036646;28;45477;-71
2022/11/17 03:15:26;;;;;;;;;0.00;0.00;;;;;21.21;49.04;98446.19;5036693;28;45438;-71
2022/11/17 03:18:01;;;;;;;;;0.00;0.00;;;;;21.22;49.47;98447.00;5036660;28;45252;-71
2022/11/17 03:20:38;;;;;;;;;0.00;0.00;;;;;21.14;49.04;98440.22;5036369;28;45429;-71
2022/11/17 03:23:16;;;;;;;;;1.00;0.00;;;;;21.18;49.18;98439.53;5036682;28;45478;-71
2022/11/17 03:25:50;;;;;;;;;0.00;0.00;;;;;21.25;49.01;98460.56;5037024;28;45343;-71
2022/11/17 03:28:18;;;;;;;;;0.00;0.00;;;;;21.20;49.02;98465.75;5023617;28;45224;-72
2022/11/17 03:30:46;;;;;;;;;2.00;0.00;;;;;21.25;49.33;98465.88;5036662;28;46259;-71
2022/11/17 03:33:18;;;;;;;;;0.00;0.00;;;;;21.17;48.71;98459.09;5036499;28;45398;-71
2022/11/17 03:35:58;;;;;;;;;0.00;0.00;;;;;21.25;48.92;98483.56;5036149;28;45361;-71
2022/11/17 03:38:28;;;;;;;;;0.00;0.00;;;;;21.16;49.23;98480.47;5036494;28;45425;-71
2022/11/17 03:40:59;;;;;;;;;0.00;0.00;;;;;21.25;48.79;98489.66;5040879;28;46054;-71
2022/11/17 03:43:26;;;;;;;;;0.00;0.00;;;;;21.25;49.33;98510.81;5036192;28;45500;-71
2022/11/17 03:45:55;;;;;;;;;1.00;0.00;;;;;21.24;49.18;98517.13;5036643;28;45487;-72
2022/11/17 03:49:01;;;;;;;;;2.00;0.00;;;;;21.23;49.00;98534.06;5035717;28;45430;-71
2022/11/17 03:51:31;;;;;;;;;0.00;0.00;;;;;21.22;49.37;98521.84;5032290;28;46135;-71
2022/11/17 03:53:57;;;;;;;;;0.00;0.00;;;;;21.22;49.21;98528.97;5036150;28;45474;-71
2022/11/17 03:56:43;;;;;;;;;0.00;0.00;;;;;21.20;48.85;98542.44;5036367;28;45358;-71
2022/11/17 03:59:35;;;;;;;;;0.00;0.00;;;;;21.20;48.85;98547.72;5036338;28;45533;-71
2022/11/17 04:02:01;;;;;;;;;0.00;0.00;;;;;21.19;49.20;98540.81;5035910;28;46138;-71
2022/11/17 04:05:04;;;;;;;;;0.00;0.00;;;;;21.19;48.99;98551.41;5029341;28;45356;-71
2022/11/17 04:07:12;;;;;;;;;0.00;0.00;;;;;21.18;48.89;98558.53;5031456;28;45288;-71
2022/11/17 04:09:38;;;;;;;;;0.00;0.00;;;;;21.18;49.11;98561.16;5036201;28;45567;-71
2022/11/17 04:17:31;;;;;;;;;0.00;0.00;;;;;21.18;48.75;98574.38;5035352;28;45378;-71
2022/11/17 04:19:56;;;;;;;;;0.00;0.00;;;;;21.18;48.71;98582.31;5015026;28;45468;-71
2022/11/17 04:22:21;;;;;;;;;0.00;0.00;;;;;21.17;48.72;98588.66;5030104;28;47123;-71
2022/11/17 04:24:46;;;;;;;;;0.00;0.00;;;;;21.17;49.05;98593.16;5036175;28;45360;-72
2022/11/17 04:29:56;;;;;;;;;0.00;0.00;;;;;21.16;49.11;98597.63;5022891;28;45237;-72
2022/11/17 04:32:21;;;;;;;;;0.67;0.00;;;;;21.17;49.10;98606.38;5035044;28;46038;-71
2022/11/17 04:34:47;;;;;;;;;1.00;0.00;;;;;21.16;49.12;98610.03;5035285;28;45429;-71
2022/11/17 04:37:16;;;;;;;;;0.00;0.00;;;;;21.14;49.17;98610.28;5035922;28;45410;-71
2022/11/17 04:39:42;;;;;;;;;2.00;0.00;;;;;21.15;48.92;98609.25;5035580;28;45488;-71
2022/11/17 04:42:07;;;;;;;;;1.00;0.00;;;;;21.14;49.36;98618.22;5035656;28;46302;-71
2022/11/17 04:44:33;;;;;;;;;0.00;0.00;;;;;21.14;48.60;98615.56;5035429;28;45483;-71
2022/11/17 04:47:00;;;;;;;;;0.00;0.00;;;;;21.13;48.86;98624.50;5035429;28;45322;-71
2022/11/17 04:49:26;;;;;;;;;0.00;0.00;;;;;21.14;48.80;98627.97;5035923;28;45335;-71
2022/11/17 04:51:52;;;;;;;;;0.00;0.00;;;;;21.16;48.89;98639.13;5034832;28;45459;-71
2022/11/17 04:54:20;;;;;;;;;0.00;0.00;;;;;21.16;49.02;98650.50;5014387;28;45954;-71
2022/11/17 04:56:47;;;;;;;;;0.00;0.00;;;;;21.14;48.93;98638.53;5032924;28;45460;-71
2022/11/17 04:59:12;;;;;;;;;0.00;0.00;;;;;21.10;49.11;98632.94;5035299;28;45319;-71
2022/11/17 05:01:38;;;;;;;;;2.00;0.00;;;;;21.18;48.70;98656.38;5034331;28;45573;-71
2022/11/17 05:04:06;;;;;;;;;0.00;0.00;;;;;21.18;48.71;98653.72;5035315;28;45536;-71
2022/11/17 05:06:32;;;;;;;;;0.33;0.00;;;;;21.18;48.93;98647.66;5017697;28;45256;-72
2022/11/17 05:08:59;;;;;;;;;0.00;0.00;;;;;21.19;48.92;98651.88;5035504;28;45431;-71
2022/11/17 05:14:12;;;;;;;;;0.00;0.00;;;;;21.18;48.71;98659.00;5035095;28;45326;-71
2022/11/17 05:19:24;;;;;;;;;0.00;0.00;;;;;21.18;48.71;98671.44;5035303;28;45335;-71
2022/11/17 05:21:50;;;;;;;;;0.00;0.00;;;;;21.17;48.75;98678.56;5034990;28;46036;-71
2022/11/17 05:24:16;;;;;;;;;0.00;0.00;;;;;21.18;48.67;98682.03;5035172;28;45287;-71
2022/11/17 05:26:42;;;;;;;;;0.00;0.00;;;;;21.16;48.70;98681.44;5038417;28;45435;-71
2022/11/17 05:29:09;;;;;;;;;0.00;0.00;;;;;21.18;48.68;98687.31;5038795;28;45343;-71
2022/11/17 05:31:34;;;;;;;;;1.00;0.00;;;;;21.17;48.79;98683.06;5038004;28;46298;-71
2022/11/17 05:34:01;;;;;;;;;1.67;0.00;;;;;21.16;48.70;98681.44;5035651;28;45481;-71
2022/11/17 05:36:27;;;;;;;;;0.00;0.00;;;;;21.16;48.95;98692.00;5038430;28;45338;-71
2022/11/17 05:38:53;;;;;;;;;0.00;0.00;;;;;21.15;48.76;98693.88;5038454;28;45367;-71
2022/11/17 05:41:19;;;;;;;;;0.00;0.00;;;;;21.09;49.24;98688.66;5038122;28;46427;-71
2022/11/17 05:43:45;;;;;;;;;0.00;0.00;;;;;21.12;48.78;98698.78;5038367;28;45343;-71
2022/11/17 05:46:11;;;;;;;;;0.00;0.00;;;;;21.13;48.97;98703.06;5038053;28;45291;-71
2022/11/17 05:48:37;;;;;;;;;0.00;0.00;;;;;21.14;48.72;98704.66;5038393;28;45318;-71
2022/11/17 05:51:03;;;;;;;;;1.00;0.00;;;;;21.09;48.77;98693.94;5037886;28;46311;-72
2022/11/17 05:53:29;;;;;;;;;0.00;0.00;;;;;21.14;48.82;98712.59;5037841;28;45276;-71
2022/11/17 05:56:27;;;;;;;;;0.00;0.00;;;;;21.13;48.58;98709.13;5038307;28;45442;-71
2022/11/17 05:59:02;;;;;;;;;0.00;0.00;;;;;21.13;49.11;98718.94;5037760;28;45323;-72
2022/11/17 06:01:28;;;;;;;;;0.00;0.00;;;;;21.12;48.94;98723.41;5037974;28;46210;-71
2022/11/17 06:03:58;;;;;;;;;1.00;0.00;;;;;21.06;48.93;98711.88;5035669;28;45346;-71
2022/11/17 06:06:23;;;;;;;;;0.00;0.00;;;;;21.12;48.54;98728.69;5026958;28;45289;-71
2022/11/17 06:08:49;;;;;;;;;0.00;0.00;;;;;21.12;48.66;98719.94;5038039;28;45403;-71
2022/11/17 06:11:15;;;;;;;;;1.00;0.00;;;;;21.01;48.83;98711.75;5038004;28;45949;-71
2022/11/17 06:13:41;;;;;;;;;1.00;0.33;;;;;21.10;48.66;98730.75;5024854;28;45437;-71
2022/11/17 06:16:10;;;;;;;;;0.00;0.00;;;;;21.12;48.59;98728.69;5031605;28;45400;-71
2022/11/17 06:19:00;;;;;;;;;0.00;0.00;;;;;21.12;48.97;98738.47;5029254;28;45332;-72
2022/11/17 06:21:26;;;;;;;;;0.00;0.00;;;;;21.11;48.69;98734.19;5037332;28;47448;-71
2022/11/17 06:23:51;;;;;;;;;2.00;0.00;;;;;21.08;48.79;98738.09;5037650;28;45329;-71
2022/11/17 06:26:17;;;;;;;;;0.00;0.00;;;;;21.11;48.60;98750.06;5037761;28;45539;-71
2022/11/17 06:28:45;;;;;;;;;0.00;0.00;;;;;21.12;48.47;98749.84;5037395;28;45378;-71
2022/11/17 06:31:11;;;;;;;;;0.00;0.00;;;;;21.11;48.53;98753.50;5037689;28;45557;-71
2022/11/17 06:33:37;;;;;;;;;2.00;0.33;;;;;21.12;48.87;98749.03;5037717;28;45470;-71
2022/11/17 06:36:05;;;;;;;;;1.00;0.00;;;;;21.12;49.11;98747.19;5019356;28;45905;-71
2022/11/17 06:38:34;;;;;;;;;1.00;0.00;;;;;21.13;48.51;98754.09;5037700;28;45537;-72
2022/11/17 06:41:00;;;;;;;;;0.00;0.00;;;;;21.15;48.34;98759.16;5037264;28;46159;-71
2022/11/17 06:43:26;;;;;;;;;0.33;0.33;;;;;21.15;48.79;98756.53;5036905;28;45438;-71
2022/11/17 06:45:51;;;;;;;;;0.00;0.00;;;;;21.13;48.66;98751.44;5041623;28;45442;-71
2022/11/17 06:48:24;;;;;;;;;0.00;0.00;;;;;21.05;48.64;98739.34;5037633;28;45378;-71
2022/11/17 06:50:49;;;;;;;;;0.00;0.00;;;;;21.16;48.46;98772.16;5037343;28;46060;-71
2022/11/17 06:53:14;;;;;;;;;1.00;0.00;;;;;21.16;48.70;98771.34;5036576;28;45346;-71
2022/11/17 06:55:40;;;;;;;;;0.00;0.00;;;;;21.16;48.40;98774.78;5037237;28;47873;-71
2022/11/17 06:58:08;;;;;;;;;0.00;0.00;;;;;21.03;48.72;98753.81;5019010;28;45267;-71
2022/11/17 07:00:35;;;;;;;;;0.00;0.00;;;;;21.13;48.75;98787.69;5037128;28;45406;-71
2022/11/17 07:03:06;;;;;;;;;0.00;0.00;;;;;21.14;48.45;98792.72;5037269;28;45462;-74
2022/11/17 07:05:33;;;;;;;;;0.00;0.00;;;;;21.08;48.30;98776.97;5029934;28;45287;-75
2022/11/17 07:07:59;;;;;;;;;0.00;0.00;;;;;21.14;48.86;98783.97;5033421;28;45486;-74
2022/11/17 07:10:26;;;;;;;;;0.00;0.00;;;;;21.14;48.72;98794.56;5030048;28;46220;-73
2022/11/17 07:12:52;;;;;;;;;0.00;0.00;;;;;21.06;48.45;98771.88;5026409;28;45631;-73
2022/11/17 07:15:17;;;;;;;;;0.00;0.00;;;;;21.13;48.50;98793.75;5023766;28;45914;-72
2022/11/17 07:17:43;;;;;;;;;0.00;0.00;;;;;21.00;48.81;98778.06;5020809;28;45570;-71
2022/11/17 07:20:09;;;;;;;;;0.00;0.00;;;;;21.16;48.93;98803.06;5031034;28;45652;-71
2022/11/17 07:22:35;;;;;;;;;0.00;0.00;;;;;21.16;48.41;98806.53;5030379;28;45513;-71
2022/11/17 07:25:00;;;;;;;;;0.00;0.00;;;;;21.17;48.56;98804.69;5030808;28;45405;-70
2022/11/17 07:27:25;;;;;;;;;0.00;0.00;;;;;21.17;48.80;98805.50;5033913;28;45267;-70
2022/11/17 07:29:51;;;;;;;;;0.00;0.00;;;;;21.18;48.69;98825.63;5030830;28;45821;-70
2022/11/17 07:32:16;;;;;;;;;0.00;0.00;;;;;21.20;49.07;98814.03;5029846;28;45303;-70
2022/11/17 07:34:41;;;;;;;;;0.00;0.00;;;;;21.11;48.90;98793.16;5022467;28;45394;-70
2022/11/17 07:37:07;;;;;;;;;0.00;0.00;;;;;21.10;48.60;98804.78;5016211;28;45977;-71
2022/11/17 07:39:32;;;;;;;;;0.00;0.00;;;;;21.17;48.88;98818.72;5019851;28;46918;-70
2022/11/17 07:41:58;;;;;;;;;0.00;0.00;;;;;21.17;48.72;98816.09;5016121;28;45339;-71
2022/11/17 07:44:23;;;;;;;;;0.00;0.00;;;;;21.18;48.67;98816.91;5027151;28;45371;-72
2022/11/17 07:46:48;;;;;;;;;0.00;0.00;;;;;21.16;49.18;98819.75;5016791;28;45340;-71
2022/11/17 07:49:14;;;;;;;;;1.00;0.00;;;;;21.18;48.82;98825.63;5015627;28;46284;-71
2022/11/17 07:51:39;;;;;;;;;0.00;0.00;;;;;21.19;48.71;98831.72;5016191;28;45404;-71
2022/11/17 07:54:04;;;;;;;;;0.00;0.00;;;;;21.18;48.63;98828.25;5018791;28;45332;-71
2022/11/17 07:56:30;;;;;;;;;0.00;0.00;;;;;21.18;48.69;98835.41;5015956;28;45380;-71
2022/11/17 07:58:55;;;;;;;;;0.00;0.00;;;;;21.18;48.59;98838.06;5016011;28;45945;-71
2022/11/17 08:01:20;;;;;;;;;0.00;0.00;;;;;21.18;48.45;98836.19;5016354;28;45454;-71
2022/11/17 08:03:46;;;;;;;;;0.00;0.00;;;;;21.18;48.54;98843.34;5015968;28;45497;-72
2022/11/17 08:06:11;;;;;;;;;0.00;0.00;;;;;21.18;48.91;98846.78;5023548;28;45372;-71
2022/11/17 08:08:43;;;;;;;;;0.00;0.00;;;;;21.20;48.66;98843.13;5036222;28;46124;-71
2022/11/17 08:11:11;;;;;;;;;0.00;0.00;;;;;21.19;48.59;98847.59;5035963;28;45398;-72
2022/11/17 08:13:50;;;;;;;;;0.67;0.00;;;;;21.16;48.41;98848.03;5018358;28;45264;-71
2022/11/17 08:16:16;;;;;;;;;1.67;0.00;;;;;21.14;48.29;98840.31;5035611;28;45550;-71
2022/11/17 08:18:41;;;;;;;;;1.00;0.00;;;;;21.20;48.73;98848.41;5014102;28;46998;-71
2022/11/17 08:21:17;;;;;;;;;0.00;0.00;;;;;21.20;49.09;98848.41;5033715;28;45450;-71
2022/11/17 08:23:43;;;;;;;;;0.00;0.00;;;;;21.19;48.98;98850.22;5036320;28;45398;-71
2022/11/17 08:26:10;;;;;;;;;0.00;0.00;;;;;21.14;48.35;98844.81;5035554;28;45427;-71
2022/11/17 08:28:36;;;;;;;;;0.00;0.00;;;;;21.18;48.45;98843.34;5035841;28;46164;-71
2022/11/17 08:31:03;;;;;;;;;0.00;0.00;;;;;21.21;48.67;98856.09;5035505;28;45386;-71
2022/11/17 08:33:28;;;;;;;;;0.00;0.00;;;;;21.21;48.96;98856.09;5035910;28;46221;-71
2022/11/17 08:35:58;;;;;;;;;0.00;0.00;;;;;21.22;49.10;98854.25;5035771;28;45378;-72
2022/11/17 08:38:27;;;;;;;;;0.67;0.00;;;;;21.22;48.47;98854.25;5035429;28;47029;-71
2022/11/17 08:40:56;;;;;;;;;0.33;0.00;;;;;21.22;48.86;98865.66;5035468;28;45460;-71
2022/11/17 08:43:21;;;;;;;;;0.00;0.00;;;;;21.21;48.42;98864.03;5035452;28;45552;-71
2022/11/17 08:45:47;;;;;;;;;0.00;0.00;;;;;21.21;48.52;98865.91;5017594;28;45520;-71
2022/11/17 08:48:12;;;;;;;;;0.00;0.00;;;;;21.21;48.80;98868.53;5035316;28;46080;-71
2022/11/17 08:50:38;;;;;;;;;0.67;0.00;;;;;21.22;48.75;98870.13;5035720;28;45406;-71
2022/11/17 08:53:03;;;;;;;;;0.00;0.00;;;;;21.21;48.64;98874.59;5035313;28;45450;-71
2022/11/17 08:55:29;;;;;;;;;0.00;0.00;;;;;21.21;48.71;98874.59;5035680;28;45466;-71
2022/11/17 08:57:54;;;;;;;;;0.00;0.00;;;;;21.21;48.50;98877.25;5035121;28;45469;-70
2022/11/17 09:00:20;;;;;;;;;0.00;0.00;;;;;21.24;48.82;98882.09;5036500;28;45460;-71
2022/11/17 09:02:49;;;;;;;;;0.00;0.00;;;;;21.25;48.55;98874.97;5039055;28;45583;-71
2022/11/17 09:05:14;;;;;;;;;0.00;0.00;;;;;21.26;48.71;98879.25;5025729;28;45366;-71
2022/11/17 09:07:40;;;;;;;;;0.00;0.00;;;;;21.27;48.33;98883.50;5037784;28;45439;-71
2022/11/17 09:10:08;;;;;;;;;0.00;0.00;;;;;21.28;48.44;98883.28;5038969;28;45489;-72
2022/11/17 09:12:33;;;;;;;;;0.00;0.00;;;;;21.29;48.61;98892.81;5038863;28;45307;-72
2022/11/17 09:14:59;;;;;;;;;0.00;0.00;;;;;21.28;48.51;98880.66;5038905;28;45319;-72
2022/11/17 09:17:24;;;;;;;;;0.00;0.00;;;;;21.29;48.61;98884.06;5038124;28;45409;-70
2022/11/17 09:19:49;;;;;;;;;0.00;0.00;;;;;21.28;48.29;98893.88;5038643;28;45434;-70
2022/11/17 09:22:15;;;;;;;;;0.00;0.00;;;;;21.28;48.83;98901.81;5038548;28;45821;-70
2022/11/17 09:24:40;;;;;;;;;0.00;0.00;;;;;21.29;48.45;98913.16;5038641;28;45403;-71
2022/11/17 09:27:05;;;;;;;;;0.00;0.00;;;;;21.30;48.53;98914.81;5038526;28;46099;-70
2022/11/17 09:29:31;;;;;;;;;1.00;0.00;;;;;21.27;48.32;98913.41;5038515;28;45545;-71
2022/11/17 09:31:56;;;;;;;;;0.00;0.00;;;;;21.26;48.55;98919.72;5038718;28;45350;-72
2022/11/17 09:34:22;;;;;;;;;0.00;0.00;;;;;21.25;48.24;98915.47;5038155;28;45458;-72
2022/11/17 09:36:50;;;;;;;;;0.00;0.00;;;;;21.26;48.63;98929.50;5038019;28;46084;-72
2022/11/17 09:39:15;;;;;;;;;0.00;0.00;;;;;21.24;48.33;98913.03;5038453;28;45288;-71
2022/11/17 09:41:46;;;;;;;;;0.00;0.00;;;;;21.23;48.31;98916.72;5038483;28;45232;-71
2022/11/17 09:44:30;;;;;;;;;0.00;0.00;;;;;21.27;48.25;98929.28;5038670;28;45303;-72
2022/11/17 09:47:21;;;;;;;;;0.00;0.00;;;;;21.28;48.36;98927.44;5038287;28;45433;-71
2022/11/17 09:49:56;;;;;;;;;0.00;0.00;;;;;21.27;48.37;98937.22;5038121;28;45523;-71
2022/11/17 09:52:33;;;;;;;;;0.00;0.00;;;;;21.25;48.46;98930.53;5037966;28;45299;-71
2022/11/17 09:55:19;;;;;;;;;0.00;0.00;;;;;21.28;48.68;98930.91;5038291;28;45758;-71
2022/11/17 09:57:55;;;;;;;;;0.00;0.00;;;;;21.29;48.61;98929.03;5038283;28;46332;-70
2022/11/17 10:00:21;;;;;;;;;0.00;0.00;;;;;21.30;48.39;98925.38;5038228;28;45443;-71
2022/11/17 10:02:49;;;;;;;;;0.00;0.00;;;;;21.30;48.30;98925.38;5038192;28;45423;-71
2022/11/17 10:05:23;;;;;;;;;0.00;0.00;;;;;21.33;48.59;98924.13;5024664;28;45454;-71
2022/11/17 10:07:51;;;;;;;;;0.00;0.00;;;;;21.33;48.26;98919.66;5006599;28;46551;-71
2022/11/17 10:10:23;;;;;;;;;0.00;0.00;;;;;21.27;48.09;98918.69;5037661;28;45382;-71
2022/11/17 10:12:55;;;;;;;;;0.00;0.00;;;;;21.35;48.62;98938.75;5037430;28;45569;-71
2022/11/17 10:15:32;;;;;;;;;1.00;0.00;;;;;21.34;48.60;98946.91;5037959;28;45445;-71
2022/11/17 10:17:57;;;;;;;;;0.00;0.00;;;;;21.33;48.40;98930.22;5037331;28;46295;-71
2022/11/17 10:20:23;;;;;;;;;0.00;0.00;;;;;21.36;48.37;98948.31;5037154;28;45564;-71
2022/11/17 10:22:50;;;;;;;;;0.00;0.00;;;;;21.31;48.44;98936.78;5038273;28;45298;-71
2022/11/17 10:25:46;;;;;;;;;0.67;0.00;;;;;21.37;48.52;98946.44;5037969;28;45538;-71
2022/11/17 10:28:30;;;;;;;;;0.00;0.00;;;;;21.37;48.15;98954.38;5035354;28;46710;-72
2022/11/17 10:31:09;;;;;;;;;0.00;0.00;;;;;21.35;48.32;98948.50;5037704;28;45354;-72
2022/11/17 10:33:41;;;;;;;;;0.00;0.00;;;;;21.36;48.15;98956.25;5036432;28;45252;-72
2022/11/17 10:36:30;;;;;;;;;0.00;0.00;;;;;21.35;48.15;98951.16;5037067;28;45524;-71
2022/11/17 10:38:58;;;;;;;;;0.00;0.00;;;;;21.36;47.90;98950.13;5037491;28;45462;-70
2022/11/17 10:41:40;;;;;;;;;0.33;0.00;;;;;21.36;48.08;98948.31;5037503;28;45359;-72
2022/11/17 10:44:16;;;;;;;;;0.00;0.00;;;;;21.33;48.51;98955.88;5038290;28;45441;-72
2022/11/17 10:47:06;;;;;;;;;0.33;0.00;;;;;21.38;48.02;98963.94;5017460;28;45643;-71
2022/11/17 10:49:34;;;;;;;;;0.00;0.00;;;;;21.32;48.37;98955.06;5031009;28;47387;-71
2022/11/17 10:52:17;;;;;;;;;0.00;0.00;;;;;21.36;48.32;98963.38;5023624;28;45292;-70
2022/11/17 10:54:43;;;;;;;;;0.00;0.00;;;;;21.36;48.00;98966.00;5037148;28;45358;-71
2022/11/17 10:57:25;;;;;;;;;0.00;0.00;;;;;21.35;47.90;98973.13;5019188;28;45418;-71
2022/11/17 10:59:56;;;;;;;;;0.00;0.00;;;;;21.33;48.53;98963.81;5036758;28;46769;-69
2022/11/17 11:02:36;;;;;;;;;0.00;0.00;;;;;21.35;48.09;98970.50;5037159;28;45478;-71
2022/11/17 11:05:13;;;;;;;;;0.00;0.00;;;;;21.33;48.20;98966.44;5036441;28;45442;-71
2022/11/17 11:07:39;;;;;;;;;0.00;0.00;;;;;21.28;48.32;98959.19;5036898;28;45317;-71
2022/11/17 11:10:31;;;;;;;;;0.00;0.00;;;;;21.29;48.47;98963.44;5037063;28;46069;-72
2022/11/17 11:13:18;;;;;;;;;0.00;0.00;;;;;21.32;47.90;98973.56;5017289;28;45400;-71
2022/11/17 11:15:44;;;;;;;;;0.33;0.00;;;;;21.31;47.94;98956.09;5032210;28;45355;-72
2022/11/17 11:18:13;;;;;;;;;0.00;0.00;;;;;21.31;47.88;98961.41;5036734;28;45514;-71
2022/11/17 11:21:03;;;;;;;;;0.00;0.00;;;;;21.28;48.08;98960.00;5036296;28;47053;-71
2022/11/17 11:23:40;;;;;;;;;0.00;0.00;;;;;21.32;47.87;98962.19;5035523;28;45473;-71
2022/11/17 11:26:22;;;;;;;;;1.00;0.00;;;;;21.19;47.67;98953.38;5036595;28;45481;-72
2022/11/17 11:28:47;;;;;;;;;0.00;0.00;;;;;21.31;47.97;98961.41;5036364;28;45355;-71
2022/11/17 11:31:31;;;;;;;;;0.00;0.00;;;;;21.31;47.88;98964.03;5036245;28;46236;-71
2022/11/17 11:34:14;;;;;;;;;0.00;0.00;;;;;21.31;48.03;98968.50;5036318;28;45306;-71
2022/11/17 11:36:58;;;;;;;;;0.00;0.00;;;;;21.34;47.93;98976.00;5036400;28;45382;-71
2022/11/17 11:39:41;;;;;;;;;0.00;0.00;;;;;21.34;48.21;98968.88;5036687;28;45472;-71
2022/11/17 11:42:22;;;;;;;;;0.00;0.00;;;;;21.35;47.75;98974.97;5036421;28;46271;-71
2022/11/17 11:45:18;;;;;;;;;0.00;0.00;;;;;21.34;47.77;98973.38;5036268;28;45319;-71
2022/11/17 11:48:06;;;;;;;;;0.00;0.00;;;;;21.35;48.21;98970.50;5036180;28;45390;-71
2022/11/17 11:50:36;;;;;;;;;0.00;0.00;;;;;21.35;47.87;98970.50;5036582;28;45394;-71
2022/11/17 11:53:10;;;;;;;;;2.67;0.00;;;;;21.36;47.84;98963.38;5036002;28;46337;-72
2022/11/17 11:55:40;;;;;;;;;0.00;0.00;;;;;21.36;47.69;98960.72;5036034;28;45296;-71
2022/11/17 11:58:12;;;;;;;;;0.67;0.00;;;;;21.36;47.93;98958.91;5036155;28;45603;-71
2022/11/17 12:00:40;;;;;;;;;0.00;0.00;;;;;21.36;48.07;98977.41;5036373;28;45199;-71
2022/11/17 12:03:14;;;;;;;;;0.00;0.00;;;;;21.35;48.19;98953.81;5035875;28;45516;-71
2022/11/17 12:09:04;;;;;;;;;0.00;0.00;;;;;21.35;48.25;98954.63;5036267;28;45328;-71
2022/11/17 12:14:17;;;;;;;;;0.00;0.00;;;;;21.35;47.66;98967.03;5035988;28;45406;-72
2022/11/17 12:16:46;;;;;;;;;0.00;0.00;;;;;21.35;48.13;98959.09;5035200;28;46148;-71
2022/11/17 12:19:52;;;;;;;;;0.00;0.00;;;;;21.34;48.11;98962.78;5035809;28;45216;-71
2022/11/17 12:22:46;;;;;;;;;0.00;0.00;;;;;21.33;47.71;98972.56;5026806;28;45545;-71